Time;durP1;ratioP1;P1;durP2;ratioP2;P2;SDS_P1;SDS_P2;PMS_P1;PMS_P2;Temp;Humidity;BMP_temperature;BMP_pressure;BME280_temperature;BME280_humidity;BME280_pressure;Samples;Min_cycle;Max_cycle;Signal;HPM_P1;HPM_P2
2021/12/22 00:00:32;;;;;;;16.13;11.03;;;5.40;1.00;;;;;;5070433;28;20206;-78
2021/12/22 00:02:59;;;;;;;14.10;10.23;;;5.60;1.00;;;;;;5070824;28;20247;-78
2021/12/22 00:05:31;;;;;;;16.10;9.80;;;5.60;1.00;;;;;;5070402;28;20287;-77
2021/12/22 00:07:59;;;;;;;15.97;10.87;;;5.70;1.00;;;;;;5070638;28;20217;-77
2021/12/22 00:10:27;;;;;;;21.07;10.67;;;5.60;1.00;;;;;;5070036;28;20203;-78
2021/12/22 00:12:54;;;;;;;14.00;10.93;;;5.50;1.00;;;;;;5070815;28;20202;-78
2021/12/22 00:15:21;;;;;;;15.57;10.87;;;5.60;1.00;;;;;;5070327;28;20202;-75
2021/12/22 00:17:48;;;;;;;16.67;11.40;;;5.60;1.00;;;;;;5070644;28;20202;-76
2021/12/22 00:20:16;;;;;;;21.87;9.67;;;5.60;1.00;;;;;;5072913;28;20206;-76
2021/12/22 00:22:44;;;;;;;16.33;11.13;;;5.60;1.00;;;;;;5074654;28;20662;-76
2021/12/22 00:25:11;;;;;;;15.93;10.60;;;5.50;1.00;;;;;;5074606;28;20217;-77
2021/12/22 00:27:39;;;;;;;15.40;10.27;;;5.60;1.00;;;;;;5074024;28;20202;-76
2021/12/22 00:30:08;;;;;;;17.73;10.43;;;5.50;1.00;;;;;;5074441;28;20264;-77
2021/12/22 00:32:37;;;;;;;15.03;11.03;;;5.60;1.00;;;;;;5073923;28;20267;-76
2021/12/22 00:35:06;;;;;;;18.97;11.33;;;5.40;1.00;;;;;;5074090;28;20240;-77
2021/12/22 00:37:34;;;;;;;16.47;9.83;;;5.50;1.00;;;;;;5073953;28;20739;-76
2021/12/22 00:40:01;;;;;;;15.13;10.93;;;5.70;1.00;;;;;;5074115;28;20202;-76
2021/12/22 00:42:28;;;;;;;15.93;11.13;;;5.60;1.00;;;;;;5073893;28;20202;-76
2021/12/22 00:44:57;;;;;;;20.80;12.47;;;5.50;1.00;;;;;;5074061;28;20206;-77
2021/12/22 00:47:26;;;;;;;20.23;12.33;;;5.50;1.00;;;;;;5064967;28;20211;-75
2021/12/22 00:49:54;;;;;;;14.40;10.47;;;5.50;1.00;;;;;;5053985;28;20207;-77
2021/12/22 00:52:21;;;;;;;13.63;8.97;;;5.60;1.00;;;;;;5053731;28;20203;-77
2021/12/22 00:54:48;;;;;;;14.10;10.50;;;5.60;1.00;;;;;;5053981;28;20238;-78
2021/12/22 00:57:16;;;;;;;17.27;12.30;;;5.60;1.00;;;;;;5053873;28;20257;-77
2021/12/22 00:59:45;;;;;;;14.27;8.80;;;5.50;1.00;;;;;;5054054;28;20214;-78
2021/12/22 01:02:16;;;;;;;16.50;10.90;;;5.60;1.00;;;;;;5054093;28;20267;-77
2021/12/22 01:04:43;;;;;;;13.47;10.77;;;5.60;1.00;;;;;;5054232;28;20210;-77
2021/12/22 01:07:12;;;;;;;12.13;9.80;;;5.60;1.00;;;;;;5053936;28;20207;-77
2021/12/22 01:09:40;;;;;;;14.03;9.33;;;5.50;1.00;;;;;;5053573;28;20666;-77
2021/12/22 01:12:08;;;;;;;12.83;9.80;;;5.60;1.00;;;;;;5053640;28;20211;-77
2021/12/22 01:14:37;;;;;;;14.00;9.77;;;5.60;1.00;;;;;;5053053;28;20292;-75
2021/12/22 01:17:05;;;;;;;15.97;11.40;;;5.60;1.00;;;;;;5053442;28;20300;-76
2021/12/22 01:19:43;;;;;;;16.43;9.40;;;5.30;1.00;;;;;;5053174;28;20211;-76
2021/12/22 01:22:21;;;;;;;15.13;10.67;;;5.40;1.00;;;;;;5053317;28;20610;-75
2021/12/22 01:24:59;;;;;;;14.30;10.83;;;5.40;1.00;;;;;;5053607;28;20242;-76
2021/12/22 01:27:28;;;;;;;13.53;10.33;;;5.50;1.00;;;;;;5052733;28;20195;-75
2021/12/22 01:29:55;;;;;;;16.90;11.27;;;5.50;1.00;;;;;;5052993;28;20203;-74
2021/12/22 01:32:23;;;;;;;13.90;11.23;;;5.50;1.00;;;;;;5052764;28;20298;-74
2021/12/22 01:34:51;;;;;;;15.17;10.83;;;5.50;1.00;;;;;;5053175;28;20239;-76
2021/12/22 01:37:18;;;;;;;13.53;9.87;;;5.60;1.00;;;;;;5052570;28;20207;-77
2021/12/22 01:39:45;;;;;;;16.53;11.10;;;5.60;1.00;;;;;;5052958;28;20206;-77
2021/12/22 01:42:12;;;;;;;12.97;9.67;;;5.50;1.00;;;;;;5053306;28;20678;-76
2021/12/22 01:45:00;;;;;;;15.23;10.37;;;5.50;1.00;;;;;;5053061;28;20207;-76
2021/12/22 01:50:17;;;;;;;16.73;11.00;;;5.40;1.00;;;;;;5053068;28;20202;-76
2021/12/22 01:52:44;;;;;;;14.03;11.43;;;5.40;1.00;;;;;;5052897;28;20199;-77
2021/12/22 01:55:25;;;;;;;14.53;10.20;;;5.40;1.00;;;;;;5052892;28;20795;-77
2021/12/22 01:57:52;;;;;;;15.20;9.53;;;5.40;1.00;;;;;;5052805;28;20198;-77
2021/12/22 02:00:21;;;;;;;14.33;10.43;;;5.40;1.00;;;;;;5052162;28;20206;-77
2021/12/22 02:02:49;;;;;;;17.07;10.87;;;5.40;1.00;;;;;;5053284;28;20206;-81
2021/12/22 02:05:18;;;;;;;13.87;10.67;;;5.40;1.00;;;;;;5055603;28;20217;-78
2021/12/22 02:07:45;;;;;;;15.07;9.47;;;5.40;1.00;;;;;;5071421;28;20210;-76
2021/12/22 02:13:15;;;;;;;13.07;9.13;;;5.60;1.00;;;;;;5109013;27;21103;-78
2021/12/22 02:15:43;;;;;;;12.23;9.97;;;5.60;1.00;;;;;;5108674;28;20201;-78
2021/12/22 02:18:16;;;;;;;13.53;10.93;;;5.60;1.00;;;;;;5108769;28;20714;-78
2021/12/22 02:20:44;;;;;;;14.03;8.83;;;5.50;1.00;;;;;;5108726;28;20201;-78
2021/12/22 02:23:11;;;;;;;16.00;9.40;;;5.70;1.00;;;;;;5108928;28;20205;-78
2021/12/22 02:25:45;;;;;;;15.97;9.33;;;5.70;1.00;;;;;;5108162;28;20254;-79
2021/12/22 02:28:18;;;;;;;15.33;10.00;;;5.70;1.00;;;;;;5108542;28;20204;-79
2021/12/22 02:30:46;;;;;;;11.87;8.97;;;5.60;1.00;;;;;;5108237;28;20673;-79
2021/12/22 02:33:24;;;;;;;15.03;9.63;;;5.70;1.00;;;;;;5108747;28;20208;-79
2021/12/22 02:36:07;;;;;;;13.80;8.60;;;5.80;1.00;;;;;;5108157;28;20665;-81
2021/12/22 02:38:35;;;;;;;14.50;7.47;;;5.70;1.00;;;;;;5108139;28;20582;-79
2021/12/22 02:41:03;;;;;;;12.27;8.87;;;5.80;1.00;;;;;;5108182;28;20610;-74
2021/12/22 02:43:33;;;;;;;11.97;8.60;;;5.80;1.00;;;;;;5107918;28;20258;-74
2021/12/22 02:46:01;;;;;;;12.57;9.30;;;5.80;1.00;;;;;;5108226;28;20201;-75
2021/12/22 02:48:32;;;;;;;11.50;8.37;;;5.80;1.00;;;;;;5107787;28;20201;-75
2021/12/22 02:51:02;;;;;;;13.83;8.80;;;5.60;1.00;;;;;;5108044;28;20254;-75
2021/12/22 02:53:32;;;;;;;10.87;8.87;;;5.60;1.00;;;;;;5107847;28;20224;-75
2021/12/22 02:56:04;;;;;;;13.30;8.30;;;5.70;1.00;;;;;;5107990;28;20208;-75
2021/12/22 02:58:38;;;;;;;12.97;9.30;;;5.90;1.00;;;;;;5107723;28;20213;-76
2021/12/22 03:01:26;;;;;;;15.93;10.03;;;5.80;1.00;;;;;;5107980;28;20574;-76
2021/12/22 03:03:58;;;;;;;11.60;9.10;;;5.80;1.00;;;;;;5107787;28;20274;-74
2021/12/22 03:06:33;;;;;;;14.63;10.47;;;5.80;1.00;;;;;;5107703;28;20201;-77
2021/12/22 03:09:01;;;;;;;12.73;9.77;;;5.70;1.00;;;;;;5106841;28;20201;-81
2021/12/22 03:11:28;;;;;;;14.10;9.83;;;5.60;1.00;;;;;;5107325;28;20228;-81
2021/12/22 03:13:55;;;;;;;14.13;9.97;;;5.80;1.00;;;;;;5107816;28;20201;-81
2021/12/22 03:16:22;;;;;;;12.27;8.87;;;5.70;1.00;;;;;;5107504;28;20619;-81
2021/12/22 03:18:49;;;;;;;14.60;8.40;;;5.70;1.00;;;;;;5107982;28;20212;-79
2021/12/22 03:21:20;;;;;;;12.53;9.10;;;5.80;1.00;;;;;;5106155;28;20288;-80
2021/12/22 03:23:51;;;;;;;13.50;9.17;;;5.60;1.00;;;;;;5097898;28;20258;-80
2021/12/22 03:26:20;;;;;;;15.23;9.60;;;5.70;1.00;;;;;;5093339;28;20614;-80
2021/12/22 03:28:47;;;;;;;17.83;11.10;;;5.60;1.00;;;;;;5093964;28;20244;-81
2021/12/22 03:31:15;;;;;;;12.97;9.67;;;5.40;1.00;;;;;;5094374;28;20613;-82
2021/12/22 03:33:43;;;;;;;15.90;10.33;;;5.60;1.00;;;;;;5093047;28;20291;-81
2021/12/22 03:36:10;;;;;;;19.00;12.00;;;5.60;1.00;;;;;;5094928;28;20251;-86
2021/12/22 03:38:38;;;;;;;13.43;9.47;;;5.60;1.00;;;;;;5094546;28;20233;-86
2021/12/22 03:41:09;;;;;;;9.40;7.93;;;5.60;1.00;;;;;;5094289;28;20205;-87
2021/12/22 03:43:36;;;;;;;14.90;10.13;;;5.80;1.00;;;;;;5094151;28;20282;-87
2021/12/22 03:46:04;;;;;;;14.47;10.57;;;5.70;1.00;;;;;;5094511;28;20255;-89
2021/12/22 03:48:31;;;;;;;14.73;9.67;;;5.70;1.00;;;;;;5094047;28;20201;-85
2021/12/22 03:50:59;;;;;;;14.97;10.93;;;5.60;1.00;;;;;;5094403;28;20209;-87
2021/12/22 03:53:26;;;;;;;13.23;9.53;;;5.60;1.00;;;;;;5094101;28;20295;-88
2021/12/22 03:55:53;;;;;;;16.90;9.50;;;5.60;1.00;;;;;;5094807;28;20258;-87
2021/12/22 03:58:22;;;;;;;13.43;10.33;;;5.80;1.00;;;;;;5094193;28;20201;-89
2021/12/22 04:00:51;;;;;;;13.07;9.37;;;5.70;1.00;;;;;;5094621;28;20198;-87
2021/12/22 04:03:22;;;;;;;12.03;8.67;;;5.60;1.00;;;;;;5093869;28;20205;-83
2021/12/22 04:05:49;;;;;;;12.37;9.37;;;5.70;1.00;;;;;;5093997;28;20251;-86
2021/12/22 04:08:18;;;;;;;11.37;9.87;;;5.70;1.00;;;;;;5094092;28;20198;-86
2021/12/22 04:10:46;;;;;;;11.83;9.20;;;5.60;1.00;;;;;;5094309;28;20201;-84
2021/12/22 04:13:14;;;;;;;13.00;10.87;;;5.60;1.00;;;;;;5094251;28;20236;-83
2021/12/22 04:15:44;;;;;;;13.23;10.00;;;5.60;1.00;;;;;;5093573;28;20277;-83
2021/12/22 04:18:11;;;;;;;13.77;10.40;;;5.60;1.00;;;;;;5093746;28;20251;-81
2021/12/22 04:20:40;;;;;;;13.40;9.60;;;5.50;1.00;;;;;;5093414;28;20210;-81
2021/12/22 04:23:07;;;;;;;16.37;10.60;;;5.40;1.00;;;;;;5092905;28;20625;-81
2021/12/22 04:25:36;;;;;;;18.43;11.10;;;5.40;1.00;;;;;;5092571;28;20209;-78
2021/12/22 04:28:08;;;;;;;14.47;10.73;;;5.50;1.00;;;;;;5087285;28;20242;-77
2021/12/22 04:30:38;;;;;;;21.17;11.40;;;5.50;1.00;;;;;;5082237;28;20201;-81
2021/12/22 04:33:08;;;;;;;14.13;9.57;;;5.60;1.00;;;;;;5086290;28;20234;-84
2021/12/22 04:35:40;;;;;;;18.90;10.87;;;5.60;1.00;;;;;;5091672;28;20292;-79
2021/12/22 04:38:09;;;;;;;18.07;11.43;;;5.70;1.00;;;;;;5092437;28;20691;-84
2021/12/22 04:40:36;;;;;;;14.27;10.57;;;5.70;1.00;;;;;;5082364;28;20576;-84
2021/12/22 04:43:03;;;;;;;15.17;13.17;;;5.70;1.00;;;;;;5087692;28;20263;-82
2021/12/22 04:45:31;;;;;;;12.70;10.10;;;5.50;1.00;;;;;;5087334;28;20217;-80
2021/12/22 04:47:58;;;;;;;23.73;12.30;;;5.60;1.00;;;;;;5092267;28;20205;-81
2021/12/22 04:50:26;;;;;;;14.93;11.53;;;5.50;1.00;;;;;;5091812;28;20255;-82
2021/12/22 04:52:59;;;;;;;15.33;11.50;;;5.40;1.00;;;;;;5083163;28;20229;-82
2021/12/22 04:55:27;;;;;;;17.37;12.47;;;5.50;1.00;;;;;;5091879;28;20198;-82
2021/12/22 04:57:55;;;;;;;17.43;12.43;;;5.40;1.00;;;;;;5092150;28;20206;-82
2021/12/22 05:00:24;;;;;;;19.60;12.37;;;5.50;1.00;;;;;;5073005;28;20202;-80
2021/12/22 05:02:52;;;;;;;15.73;12.03;;;5.50;1.00;;;;;;5071633;28;20225;-80
2021/12/22 05:05:19;;;;;;;14.83;11.17;;;5.50;1.00;;;;;;5091004;28;20217;-81
2021/12/22 05:07:49;;;;;;;17.10;12.17;;;5.50;1.00;;;;;;5091886;28;20202;-80
2021/12/22 05:10:17;;;;;;;19.07;13.93;;;5.50;1.00;;;;;;5093831;28;20614;-82
2021/12/22 05:12:46;;;;;;;19.37;12.93;;;5.40;1.00;;;;;;5094145;28;20232;-84
2021/12/22 05:15:13;;;;;;;21.03;12.17;;;5.40;1.00;;;;;;5095421;28;20205;-91
2021/12/22 05:18:12;;;;;;;16.20;11.30;;;5.30;1.00;;;;;;5089031;28;20210;-93
2021/12/22 05:20:38;;;;;;;15.47;11.60;;;5.30;1.00;;;;;;5075607;28;20596;-88
2021/12/22 05:23:06;;;;;;;20.60;13.23;;;5.20;1.00;;;;;;5093453;28;20273;-90
2021/12/22 05:25:33;;;;;;;18.80;12.73;;;5.20;1.00;;;;;;5093335;28;20247;-88
2021/12/22 05:28:00;;;;;;;15.33;11.97;;;5.20;1.00;;;;;;5091142;28;20217;-87
2021/12/22 05:30:27;;;;;;;15.90;11.93;;;5.10;1.00;;;;;;5072073;28;20623;-91
2021/12/22 05:32:55;;;;;;;16.47;12.37;;;5.30;1.00;;;;;;5072444;28;20770;-90
2021/12/22 05:35:22;;;;;;;16.37;12.00;;;5.40;1.00;;;;;;5076526;28;20216;-89
2021/12/22 05:37:50;;;;;;;15.87;11.10;;;5.30;1.00;;;;;;5071794;28;20210;-92
2021/12/22 05:40:19;;;;;;;18.87;12.47;;;5.20;1.00;;;;;;5071602;28;20665;-87
2021/12/22 05:42:46;;;;;;;21.47;12.50;;;5.10;1.00;;;;;;5071893;28;20210;-87
2021/12/22 05:45:16;;;;;;;17.93;12.40;;;5.20;1.00;;;;;;5072349;28;20202;-86
2021/12/22 05:47:43;;;;;;;15.80;11.20;;;5.10;1.00;;;;;;5072218;28;20259;-84
2021/12/22 05:50:10;;;;;;;17.83;11.97;;;5.20;1.00;;;;;;5072096;28;20216;-82
2021/12/22 05:52:37;;;;;;;16.13;13.17;;;5.20;1.00;;;;;;5071548;28;20241;-84
2021/12/22 05:55:05;;;;;;;15.30;11.17;;;5.00;1.00;;;;;;5072404;28;20256;-84
2021/12/22 05:57:34;;;;;;;15.80;11.37;;;5.00;1.00;;;;;;5071159;28;20268;-83
2021/12/22 06:00:01;;;;;;;14.03;10.47;;;4.90;1.00;;;;;;5071439;28;20727;-84
2021/12/22 06:02:28;;;;;;;15.73;11.77;;;5.00;1.00;;;;;;5071718;28;20735;-86
2021/12/22 06:04:54;;;;;;;15.43;11.27;;;4.90;1.00;;;;;;5071270;28;20584;-83
2021/12/22 06:07:21;;;;;;;17.37;11.90;;;5.00;1.00;;;;;;5071524;28;20673;-81
2021/12/22 06:09:48;;;;;;;13.37;11.03;;;5.00;1.00;;;;;;5073437;28;20259;-80
2021/12/22 06:12:15;;;;;;;13.77;10.83;;;4.80;1.00;;;;;;5071473;28;20701;-80
2021/12/22 06:14:44;;;;;;;15.70;10.97;;;4.70;1.00;;;;;;5071679;28;20202;-86
2021/12/22 06:17:11;;;;;;;14.57;10.57;;;5.00;1.00;;;;;;5072421;28;20251;-86
2021/12/22 06:19:38;;;;;;;14.43;10.00;;;5.20;1.00;;;;;;5079350;28;20202;-82
2021/12/22 06:22:05;;;;;;;15.63;11.47;;;5.30;1.00;;;;;;5083329;28;20256;-81
2021/12/22 06:24:32;;;;;;;14.67;11.57;;;5.20;1.00;;;;;;5071629;28;20202;-85
2021/12/22 06:27:02;;;;;;;12.37;9.10;;;5.20;1.00;;;;;;5071138;28;20202;-86
2021/12/22 06:29:29;;;;;;;15.57;10.97;;;5.20;1.00;;;;;;5071497;28;20206;-87
2021/12/22 06:31:58;;;;;;;15.47;10.80;;;5.20;1.00;;;;;;5071419;28;20263;-85
2021/12/22 06:34:25;;;;;;;12.97;10.23;;;5.10;1.00;;;;;;5071804;28;20623;-86
2021/12/22 06:36:52;;;;;;;14.20;9.70;;;5.10;1.00;;;;;;5071239;28;20206;-83
2021/12/22 06:39:19;;;;;;;14.50;10.20;;;5.30;1.00;;;;;;5071346;28;20610;-84
2021/12/22 06:41:47;;;;;;;18.27;10.63;;;5.20;1.00;;;;;;5071081;28;20268;-84
2021/12/22 06:44:15;;;;;;;14.03;10.37;;;5.10;1.00;;;;;;5071671;28;20201;-85
2021/12/22 06:46:42;;;;;;;13.30;10.20;;;5.30;1.00;;;;;;5071522;28;20198;-84
2021/12/22 06:49:11;;;;;;;15.97;10.17;;;5.10;1.00;;;;;;5071695;28;20623;-84
2021/12/22 06:51:39;;;;;;;13.17;9.47;;;4.90;1.00;;;;;;5071547;28;20690;-85
2021/12/22 06:54:06;;;;;;;14.03;11.00;;;5.20;1.00;;;;;;5070727;28;20241;-85
2021/12/22 06:56:33;;;;;;;15.67;9.73;;;5.20;1.00;;;;;;5071382;28;20214;-86
2021/12/22 06:59:01;;;;;;;13.50;8.70;;;5.30;1.00;;;;;;5072823;28;20210;-80
2021/12/22 07:01:31;;;;;;;11.93;9.03;;;5.40;1.00;;;;;;5074302;28;20293;-80
2021/12/22 07:03:58;;;;;;;11.50;9.07;;;5.30;1.00;;;;;;5074100;28;20206;-85
2021/12/22 07:06:27;;;;;;;15.33;10.70;;;5.40;1.00;;;;;;5080849;28;20734;-86
2021/12/22 07:08:54;;;;;;;11.53;9.30;;;5.20;1.00;;;;;;5095102;28;20258;-91
2021/12/22 07:11:21;;;;;;;12.97;8.20;;;5.40;1.00;;;;;;5095131;28;20213;-92
2021/12/22 07:13:48;;;;;;;12.23;9.40;;;5.50;1.00;;;;;;5095179;28;20236;-94
2021/12/22 07:16:15;;;;;;;12.67;9.20;;;5.60;1.00;;;;;;5096062;28;20202;-93
2021/12/22 07:18:42;;;;;;;13.73;10.17;;;5.40;1.00;;;;;;5095283;28;20201;-81
2021/12/22 07:21:10;;;;;;;12.07;8.97;;;5.40;1.00;;;;;;5103008;28;20213;-87
2021/12/22 07:23:39;;;;;;;9.90;8.20;;;5.30;1.00;;;;;;5101273;28;20213;-92
2021/12/22 07:26:06;;;;;;;13.77;9.50;;;5.30;1.00;;;;;;5096987;28;20201;-93
2021/12/22 07:28:33;;;;;;;15.77;11.13;;;5.20;1.00;;;;;;5095041;28;20205;-82
2021/12/22 07:31:00;;;;;;;10.90;9.40;;;5.00;1.00;;;;;;5093653;28;20278;-82
2021/12/22 07:33:27;;;;;;;13.03;9.33;;;5.30;1.00;;;;;;5093464;28;20225;-82
2021/12/22 07:35:59;;;;;;;15.27;10.33;;;5.50;1.00;;;;;;5093347;28;20661;-83
2021/12/22 07:38:35;;;;;;;12.37;9.63;;;5.50;1.00;;;;;;5093709;28;20255;-83
2021/12/22 07:41:05;;;;;;;15.60;10.70;;;5.50;1.00;;;;;;5093148;28;20255;-83
2021/12/22 07:43:32;;;;;;;13.73;9.77;;;5.40;1.00;;;;;;5094126;28;20255;-81
2021/12/22 07:46:01;;;;;;;10.60;8.27;;;5.30;1.00;;;;;;5093633;28;20202;-82
2021/12/22 07:48:28;;;;;;;12.50;8.70;;;5.30;1.00;;;;;;5093858;28;20209;-82
2021/12/22 07:50:55;;;;;;;15.00;10.37;;;5.40;1.00;;;;;;5093873;28;20250;-82
2021/12/22 07:53:23;;;;;;;12.93;9.97;;;5.50;1.00;;;;;;5093677;28;20229;-83
2021/12/22 07:55:53;;;;;;;10.43;8.43;;;5.60;1.00;;;;;;5093458;28;20661;-83
2021/12/22 07:58:22;;;;;;;10.30;7.73;;;5.90;1.00;;;;;;5093878;28;20276;-86
2021/12/22 08:00:50;;;;;;;12.93;10.20;;;5.90;1.00;;;;;;5092708;28;20209;-84
2021/12/22 08:03:17;;;;;;;11.83;9.07;;;5.90;1.00;;;;;;5073545;28;20206;-81
2021/12/22 08:05:45;;;;;;;11.20;8.37;;;5.90;1.00;;;;;;5080361;28;20288;-81
2021/12/22 08:08:12;;;;;;;11.37;8.73;;;6.00;1.00;;;;;;5093483;28;20206;-82
2021/12/22 08:10:41;;;;;;;8.60;7.77;;;6.10;1.00;;;;;;5093277;28;20258;-82
2021/12/22 08:13:08;;;;;;;12.33;7.93;;;6.20;1.00;;;;;;5093281;28;20319;-86
2021/12/22 08:15:36;;;;;;;9.57;7.63;;;6.30;1.00;;;;;;5086124;28;20209;-80
2021/12/22 08:18:04;;;;;;;10.33;7.87;;;6.50;1.00;;;;;;5079778;28;20206;-81
2021/12/22 08:20:31;;;;;;;12.40;8.57;;;6.70;1.00;;;;;;5085172;28;20201;-83
2021/12/22 08:22:58;;;;;;;11.23;8.03;;;6.90;1.00;;;;;;5092378;28;20758;-80
2021/12/22 08:25:25;;;;;;;10.80;8.87;;;6.90;1.00;;;;;;5093352;28;20202;-85
2021/12/22 08:27:52;;;;;;;10.93;7.73;;;7.00;1.00;;;;;;5091997;28;20247;-84
2021/12/22 08:30:20;;;;;;;9.37;6.97;;;7.30;1.00;;;;;;5087131;28;20220;-81
2021/12/22 08:32:50;;;;;;;10.50;8.47;;;7.50;1.00;;;;;;5083365;28;20213;-81
2021/12/22 08:35:20;;;;;;;9.93;8.03;;;7.60;1.00;;;;;;5075622;28;22230;-79
2021/12/22 08:40:31;;;;;;;9.17;8.10;;;8.20;1.00;;;;;;5091454;28;20208;-79
2021/12/22 08:42:58;;;;;;;12.40;7.73;;;8.70;1.00;;;;;;5081527;28;20210;-79
2021/12/22 08:45:25;;;;;;;10.13;7.00;;;9.10;1.00;;;;;;5072179;28;20214;-80
2021/12/22 08:47:54;;;;;;;8.50;7.13;;;8.50;1.00;;;;;;5090012;28;20205;-79
2021/12/22 08:50:24;;;;;;;11.23;6.90;;;8.20;1.00;;;;;;5092164;28;20201;-79
2021/12/22 08:52:51;;;;;;;9.63;6.73;;;7.90;1.00;;;;;;5075575;28;20207;-80
2021/12/22 08:55:20;;;;;;;9.77;6.63;;;7.80;1.00;;;;;;5071921;28;20206;-79
2021/12/22 08:57:47;;;;;;;8.70;6.63;;;8.00;1.00;;;;;;5071861;28;20206;-80
2021/12/22 09:00:15;;;;;;;10.67;8.07;;;8.30;1.00;;;;;;5080786;28;20205;-80
2021/12/22 09:02:44;;;;;;;9.23;7.17;;;8.70;1.00;;;;;;5091725;28;20258;-79
2021/12/22 09:05:13;;;;;;;9.90;7.03;;;10.10;1.00;;;;;;5091647;28;20197;-80
2021/12/22 09:07:40;;;;;;;11.73;7.07;;;9.40;1.00;;;;;;5091758;28;20205;-79
2021/12/22 09:10:07;;;;;;;9.63;8.10;;;9.60;1.00;;;;;;5092076;28;20205;-80
2021/12/22 09:12:34;;;;;;;7.93;5.90;;;9.50;1.00;;;;;;5091530;28;20263;-82
2021/12/22 09:15:01;;;;;;;8.60;7.07;;;9.50;1.00;;;;;;5080784;28;20303;-82
2021/12/22 09:17:28;;;;;;;12.20;7.60;;;9.20;1.00;;;;;;5071586;28;20206;-83
2021/12/22 09:19:56;;;;;;;7.90;6.67;;;9.40;1.00;;;;;;5070694;28;20731;-79
2021/12/22 09:22:25;;;;;;;11.27;6.83;;;9.40;1.00;;;;;;5078641;28;20653;-81
2021/12/22 09:24:52;;;;;;;10.13;7.70;;;10.00;1.00;;;;;;5072602;28;20323;-82
2021/12/22 09:27:19;;;;;;;10.60;6.60;;;10.50;1.00;;;;;;5071506;28;20213;-80
2021/12/22 09:29:48;;;;;;;7.30;6.60;;;10.80;1.00;;;;;;5084820;28;20753;-84
2021/12/22 09:32:17;;;;;;;8.97;7.67;;;10.80;1.00;;;;;;5075749;28;20669;-82
2021/12/22 09:34:46;;;;;;;8.97;6.93;;;10.90;1.00;;;;;;5087702;28;20222;-86
2021/12/22 09:37:13;;;;;;;8.37;6.90;;;11.40;1.00;;;;;;5090980;28;20673;-80
2021/12/22 09:39:42;;;;;;;8.07;6.43;;;11.20;1.00;;;;;;5090495;28;20230;-83
2021/12/22 09:42:09;;;;;;;7.57;6.27;;;11.60;1.00;;;;;;5086188;28;20209;-85
2021/12/22 09:44:43;;;;;;;8.70;6.70;;;11.00;1.00;;;;;;5091831;28;20202;-82
2021/12/22 09:47:11;;;;;;;8.17;6.20;;;10.60;1.00;;;;;;5089292;28;20201;-87
2021/12/22 09:50:05;;;;;;;10.00;7.07;;;12.00;1.00;;;;;;5090919;28;20206;-85
2021/12/22 09:52:32;;;;;;;7.73;5.97;;;11.50;1.00;;;;;;5091548;28;20665;-89
2021/12/22 09:55:01;;;;;;;10.97;6.60;;;11.50;1.00;;;;;;5093156;28;20225;-82
2021/12/22 09:57:30;;;;;;;7.95;6.32;;;12.10;1.00;;;;;;5085615;28;20201;-82
2021/12/22 09:59:59;;;;;;;8.65;6.03;;;13.30;1.00;;;;;;5086221;28;20202;-86
2021/12/22 10:02:29;;;;;;;8.35;7.15;;;12.70;1.00;;;;;;5090767;28;20270;-76
2021/12/22 10:04:57;;;;;;;7.53;6.60;;;13.30;1.00;;;;;;5076819;28;20264;-83
2021/12/22 10:07:27;;;;;;;7.00;5.43;;;14.70;1.00;;;;;;5091693;28;20288;-88
2021/12/22 10:09:55;;;;;;;9.60;7.13;;;13.70;99.90;;;;;;5092155;28;20209;-83
2021/12/22 10:12:26;;;;;;;7.07;5.78;;;12.70;1.00;;;;;;5091497;28;20688;-84
2021/12/22 10:14:55;;;;;;;9.27;7.35;;;14.80;1.00;;;;;;5091180;28;20302;-89
2021/12/22 10:17:34;;;;;;;10.57;6.45;;;15.10;99.90;;;;;;5091386;28;20258;-84
2021/12/22 10:20:04;;;;;;;7.03;6.20;;;13.70;99.90;;;;;;5086131;28;20206;-86
2021/12/22 10:22:33;;;;;;;9.90;8.00;;;15.30;99.90;;;;;;5092108;28;20208;-88
2021/12/22 10:25:10;;;;;;;9.27;6.35;;;14.20;99.90;;;;;;5076767;28;20291;-88
2021/12/22 10:27:42;;;;;;;6.82;6.03;;;13.90;99.90;;;;;;5073671;28;20235;-78
2021/12/22 10:30:24;;;;;;;8.07;6.55;;;14.50;99.90;;;;;;5083090;28;20263;-80
2021/12/22 10:33:03;;;;;;;6.10;5.50;;;14.20;99.90;;;;;;5079031;28;20752;-85
2021/12/22 10:35:32;;;;;;;6.95;6.25;;;13.90;99.90;;;;;;5077671;28;20241;-86
2021/12/22 10:38:00;;;;;;;9.27;6.47;;;14.50;99.90;;;;;;5083432;28;20216;-84
2021/12/22 10:40:31;;;;;;;6.40;5.55;;;14.90;99.90;;;;;;5086400;28;20202;-82
2021/12/22 10:43:00;;;;;;;6.30;4.93;;;14.60;99.90;;;;;;5077563;28;20623;-86
2021/12/22 10:45:30;;;;;;;9.07;5.72;;;13.00;99.90;;;;;;5092016;28;20252;-81
2021/12/22 10:50:45;;;;;;;6.20;5.00;;;10.40;1.00;;;;;;5077419;28;20205;-71
2021/12/22 10:53:14;;;;;;;8.67;5.43;;;10.30;1.00;;;;;;5093154;28;20231;-82
2021/12/22 10:55:43;;;;;;;7.73;5.87;;;10.30;1.00;;;;;;5090327;28;20229;-89
2021/12/22 10:58:24;;;;;;;8.37;5.83;;;10.40;1.00;;;;;;5095255;28;20258;-90
2021/12/22 11:01:10;;;;;;;8.23;6.17;;;10.50;1.00;;;;;;5093989;28;20246;-85
2021/12/22 11:03:43;;;;;;;5.93;4.70;;;10.50;1.00;;;;;;5092754;28;20218;-84
2021/12/22 11:06:22;;;;;;;8.23;5.33;;;10.50;1.00;;;;;;5092311;28;20292;-83
2021/12/22 11:08:57;;;;;;;8.23;6.30;;;10.40;1.00;;;;;;5088051;28;20240;-82
2021/12/22 11:11:36;;;;;;;6.27;4.90;;;10.50;1.00;;;;;;5091097;28;20209;-82
2021/12/22 11:14:09;;;;;;;7.87;6.77;;;10.60;1.00;;;;;;5093279;28;20276;-80
2021/12/22 11:16:57;;;;;;;7.43;6.30;;;10.70;1.00;;;;;;5093982;28;20239;-81
2021/12/22 11:19:25;;;;;;;7.10;5.67;;;10.90;1.00;;;;;;5093369;28;20259;-81
2021/12/22 11:22:08;;;;;;;6.87;5.40;;;10.90;1.00;;;;;;5093223;28;20202;-80
2021/12/22 11:24:40;;;;;;;8.07;6.77;;;10.80;1.00;;;;;;5089381;28;20616;-78
2021/12/22 11:27:08;;;;;;;8.50;6.17;;;10.90;1.00;;;;;;5079351;28;20669;-73
2021/12/22 11:29:39;;;;;;;7.40;5.10;;;10.80;1.00;;;;;;5092507;28;20665;-76
2021/12/22 11:32:08;;;;;;;7.17;5.63;;;10.90;1.00;;;;;;5079049;28;20209;-74
2021/12/22 11:34:37;;;;;;;9.17;6.03;;;10.80;1.00;;;;;;5093724;28;20233;-78
2021/12/22 11:37:07;;;;;;;7.13;6.40;;;10.80;1.00;;;;;;5092997;28;20201;-77
2021/12/22 11:39:35;;;;;;;12.83;6.63;;;10.90;1.00;;;;;;5093595;28;20205;-77
2021/12/22 11:42:07;;;;;;;9.00;6.80;;;10.90;1.00;;;;;;5085913;28;20287;-82
2021/12/22 11:44:40;;;;;;;7.50;5.80;;;10.90;1.00;;;;;;5082232;28;20286;-80
2021/12/22 11:47:11;;;;;;;8.70;5.90;;;10.90;1.00;;;;;;5079496;28;20237;-81
2021/12/22 11:49:51;;;;;;;8.50;5.70;;;10.90;1.00;;;;;;5086219;28;20201;-76
2021/12/22 11:52:37;;;;;;;8.20;5.23;;;10.90;1.00;;;;;;5080560;28;20256;-75
2021/12/22 11:55:22;;;;;;;6.50;5.70;;;10.90;1.00;;;;;;5092432;28;20241;-82
2021/12/22 11:57:51;;;;;;;7.13;4.90;;;10.80;1.00;;;;;;5093001;28;20204;-74
2021/12/22 12:00:31;;;;;;;8.13;5.73;;;10.70;1.00;;;;;;5091460;28;20735;-76
2021/12/22 12:03:00;;;;;;;5.63;4.90;;;11.10;1.00;;;;;;5089850;28;20202;-79
2021/12/22 12:05:28;;;;;;;9.07;5.20;;;11.10;1.00;;;;;;5078283;28;20209;-79
2021/12/22 12:07:56;;;;;;;6.07;5.23;;;11.20;1.00;;;;;;5085835;28;20202;-80
2021/12/22 12:10:36;;;;;;;7.00;5.53;;;11.30;1.00;;;;;;5086901;28;20227;-77
2021/12/22 12:13:08;;;;;;;8.10;5.30;;;11.10;1.00;;;;;;5090714;28;20232;-78
2021/12/22 12:21:39;;;;;;;9.40;5.93;;;11.30;1.00;;;;;;5091836;28;20268;-77
2021/12/22 12:22:09;;;;;;;8.10;4.97;;;11.40;1.00;;;;;;5072010;28;20278;-78
2021/12/22 12:24:43;;;;;;;6.37;4.73;;;11.00;1.00;;;;;;5080477;28;20292;-77
2021/12/22 12:27:37;;;;;;;8.07;4.93;;;11.00;1.00;;;;;;5092603;28;20626;-76
2021/12/22 12:30:11;;;;;;;8.10;5.70;;;11.10;1.00;;;;;;5086047;28;20202;-76
2021/12/22 12:33:09;;;;;;;7.73;5.50;;;11.20;1.00;;;;;;5092090;28;20209;-76
2021/12/22 12:35:39;;;;;;;9.13;6.40;;;11.20;1.00;;;;;;5078927;28;20321;-77
2021/12/22 12:38:14;;;;;;;7.50;5.60;;;11.10;1.00;;;;;;5079567;28;20259;-77
2021/12/22 12:41:11;;;;;;;10.83;6.13;;;11.30;1.00;;;;;;5092240;28;20295;-78
2021/12/22 12:43:52;;;;;;;7.57;5.13;;;11.10;1.00;;;;;;5091777;28;20205;-79
2021/12/22 12:46:45;;;;;;;6.73;5.30;;;11.10;1.00;;;;;;5092904;28;20293;-80
2021/12/22 12:49:33;;;;;;;8.07;5.40;;;11.20;1.00;;;;;;5090591;28;20220;-80
2021/12/22 12:52:09;;;;;;;8.67;6.23;;;11.10;1.00;;;;;;5091972;28;20197;-77
2021/12/22 12:54:43;;;;;;;6.90;5.37;;;11.20;1.00;;;;;;5091927;28;20255;-79
2021/12/22 12:57:31;;;;;;;11.40;6.07;;;11.20;1.00;;;;;;5091040;28;20247;-81
2021/12/22 13:00:06;;;;;;;7.77;6.23;;;11.30;1.00;;;;;;5070505;28;20623;-80
2021/12/22 13:02:35;;;;;;;7.60;6.27;;;11.20;1.00;;;;;;5087840;28;20208;-80
2021/12/22 13:05:13;;;;;;;10.23;6.53;;;11.20;1.00;;;;;;5085164;28;20232;-79
2021/12/22 13:07:40;;;;;;;7.63;5.90;;;11.20;1.00;;;;;;5091319;28;20228;-77
2021/12/22 13:10:13;;;;;;;6.80;5.83;;;11.20;1.00;;;;;;5090812;28;20296;-79
2021/12/22 13:13:01;;;;;;;7.90;6.70;;;11.40;1.00;;;;;;5089919;28;20210;-79
2021/12/22 13:15:46;;;;;;;6.33;5.37;;;11.40;1.00;;;;;;5090900;28;20278;-77
2021/12/22 13:18:31;;;;;;;7.43;6.13;;;11.30;1.00;;;;;;5090132;28;20335;-78
2021/12/22 13:21:06;;;;;;;10.43;6.80;;;11.30;1.00;;;;;;5090659;28;20232;-77
2021/12/22 13:23:33;;;;;;;9.73;6.17;;;11.20;1.00;;;;;;5089117;28;20228;-79